Time;durP1;ratioP1;P1;durP2;ratioP2;P2;SDS_P1;SDS_P2;PMS_P1;PMS_P2;Temp;Humidity;BMP_temperature;BMP_pressure;BME280_temperature;BME280_humidity;BME280_pressure;Samples;Min_cycle;Max_cycle;Signal;HPM_P1;HPM_P2
2022/10/27 00:00:19;;;;;;;13.93;5.93;;;13.00;99.90;;;;;;6312608;22;20014;-80
2022/10/27 00:02:45;;;;;;;14.27;6.22;;;13.00;99.90;;;;;;6312586;22;20320;-80
2022/10/27 00:05:11;;;;;;;18.77;6.90;;;13.00;99.90;;;;;;6312566;22;20342;-81
2022/10/27 00:07:37;;;;;;;15.90;6.35;;;13.00;99.90;;;;;;6340899;22;20491;-80
2022/10/27 00:10:05;;;;;;;15.45;5.88;;;13.00;99.90;;;;;;6340385;22;20011;-81
2022/10/27 00:12:31;;;;;;;19.15;7.00;;;13.00;99.90;;;;;;6340468;22;20069;-80
2022/10/27 00:14:57;;;;;;;16.88;6.43;;;13.00;99.90;;;;;;6312400;22;20466;-80
2022/10/27 00:17:23;;;;;;;16.63;6.65;;;13.00;99.90;;;;;;6312448;22;20018;-80
2022/10/27 00:19:48;;;;;;;16.85;6.03;;;13.00;99.90;;;;;;6312260;22;20022;-80
2022/10/27 00:22:14;;;;;;;16.95;7.28;;;13.00;99.90;;;;;;6340308;22;20019;-80
2022/10/27 00:24:40;;;;;;;20.13;5.93;;;13.00;99.90;;;;;;6340307;22;20374;-81
2022/10/27 00:27:07;;;;;;;15.48;5.85;;;13.00;99.90;;;;;;6340253;22;20022;-81
2022/10/27 00:29:33;;;;;;;16.80;6.10;;;13.00;99.90;;;;;;6339849;22;20486;-80
2022/10/27 00:31:59;;;;;;;19.50;6.20;;;13.00;99.90;;;;;;6340308;22;20045;-80
2022/10/27 00:34:24;;;;;;;16.27;5.93;;;13.00;99.90;;;;;;6340185;22;20084;-80
2022/10/27 00:36:50;;;;;;;20.55;6.47;;;13.00;99.90;;;;;;6312282;22;20342;-80
2022/10/27 00:39:16;;;;;;;12.82;5.70;;;13.00;99.90;;;;;;6340174;22;20065;-80
2022/10/27 00:41:42;;;;;;;17.60;6.35;;;13.00;99.90;;;;;;6339827;22;20026;-80
2022/10/27 00:44:34;;;;;;;19.88;6.90;;;12.90;99.90;;;;;;6339782;22;20025;-80
2022/10/27 00:47:09;;;;;;;20.75;5.63;;;13.00;99.90;;;;;;6312105;22;20050;-79
2022/10/27 00:49:52;;;;;;;18.27;5.72;;;13.00;99.90;;;;;;6312223;22;20014;-80
2022/10/27 00:52:38;;;;;;;;;;;12.90;99.90;;;;;;6340705;22;20022;-80
2022/10/27 00:55:12;;;;;;;13.75;5.25;;;12.90;99.90;;;;;;6339061;22;19961;-80
2022/10/27 00:57:39;;;;;;;16.08;5.97;;;12.90;99.90;;;;;;6312062;22;20025;-80
2022/10/27 01:00:05;;;;;;;18.05;5.53;;;12.90;99.90;;;;;;6312007;22;20014;-80
2022/10/27 01:02:33;;;;;;;11.48;6.00;;;12.90;99.90;;;;;;6311970;22;20026;-80
2022/10/27 01:05:16;;;;;;;18.08;5.45;;;12.90;99.90;;;;;;6339934;22;20011;-80
2022/10/27 01:07:43;;;;;;;17.27;5.95;;;12.90;99.90;;;;;;6339975;22;20015;-80
2022/10/27 01:10:09;;;;;;;14.52;5.20;;;12.90;99.90;;;;;;6339522;22;20046;-79
2022/10/27 01:12:35;;;;;;;22.25;5.18;;;12.90;99.90;;;;;;6339910;22;20132;-80
2022/10/27 01:15:02;;;;;;;16.80;4.85;;;12.90;99.90;;;;;;6339517;22;20014;-80
2022/10/27 01:17:44;;;;;;;14.70;5.22;;;12.90;99.90;;;;;;6311934;22;20017;-80
2022/10/27 01:20:45;;;;;;;14.70;6.15;;;13.00;99.90;;;;;;6339470;22;20089;-81
2022/10/27 01:23:33;;;;;;;21.35;5.93;;;13.00;99.90;;;;;;6339520;22;20079;-80
2022/10/27 01:26:35;;;;;;;16.17;6.40;;;13.00;99.90;;;;;;6311815;22;20308;-81
2022/10/27 01:29:30;;;;;;;19.98;6.75;;;12.90;99.90;;;;;;6311824;22;20018;-81
2022/10/27 01:32:08;;;;;;;17.63;7.40;;;13.00;99.90;;;;;;6312262;22;20381;-79
2022/10/27 01:34:41;;;;;;;18.85;6.68;;;13.00;99.90;;;;;;6311547;22;20011;-80
2022/10/27 01:37:20;;;;;;;16.30;6.80;;;13.00;99.90;;;;;;6339669;22;20015;-80
2022/10/27 01:39:55;;;;;;;16.30;7.43;;;13.00;99.90;;;;;;6339692;22;20056;-81
2022/10/27 01:42:31;;;;;;;19.98;6.97;;;13.10;99.90;;;;;;6339744;22;20442;-80
2022/10/27 01:44:58;;;;;;;22.33;7.68;;;13.00;99.90;;;;;;6312102;22;20007;-80
2022/10/27 01:47:25;;;;;;;20.73;7.45;;;13.10;99.90;;;;;;6311636;22;20026;-80
2022/10/27 01:49:53;;;;;;;14.30;7.88;;;13.10;99.90;;;;;;6339235;22;20324;-80
2022/10/27 01:52:37;;;;;;;19.67;7.18;;;13.00;99.90;;;;;;6339589;22;20014;-80
2022/10/27 01:55:03;;;;;;;21.73;7.47;;;13.00;99.90;;;;;;6339243;22;20026;-80
2022/10/27 01:57:48;;;;;;;23.40;8.07;;;13.00;99.90;;;;;;6311758;22;20015;-80
2022/10/27 02:00:13;;;;;;;25.92;7.70;;;13.00;99.90;;;;;;6339706;22;20022;-80
2022/10/27 02:02:56;;;;;;;20.48;8.23;;;12.90;99.90;;;;;;6339175;22;20022;-80
2022/10/27 02:05:50;;;;;;;20.58;8.60;;;12.90;99.90;;;;;;6339600;22;20033;-80
2022/10/27 02:08:23;;;;;;;19.05;7.80;;;12.80;99.90;;;;;;6339127;22;20451;-80
2022/10/27 02:11:02;;;;;;;22.73;9.65;;;12.80;99.90;;;;;;6311496;22;20015;-80
2022/10/27 02:13:29;;;;;;;18.50;8.85;;;12.80;99.90;;;;;;6339538;22;20350;-81
2022/10/27 02:16:00;;;;;;;23.10;9.25;;;12.80;99.90;;;;;;6339366;22;20056;-80
2022/10/27 02:18:32;;;;;;;22.98;9.95;;;12.80;99.90;;;;;;6311549;22;20068;-81
2022/10/27 02:21:04;;;;;;;22.27;9.63;;;12.80;99.90;;;;;;6339194;22;20029;-80
2022/10/27 02:23:30;;;;;;;23.58;10.38;;;12.70;99.90;;;;;;6341784;22;20522;-80
2022/10/27 02:26:12;;;;;;;26.75;11.00;;;12.80;99.90;;;;;;6313457;22;20054;-80
2022/10/27 02:28:47;;;;;;;26.75;10.75;;;12.70;99.90;;;;;;6313507;22;20068;-80
2022/10/27 02:31:16;;;;;;;20.08;10.60;;;12.60;99.90;;;;;;6313530;22;20041;-80
2022/10/27 02:33:42;;;;;;;19.95;9.82;;;12.60;99.90;;;;;;6341381;22;20013;-80
2022/10/27 02:36:08;;;;;;;23.27;10.50;;;12.70;99.90;;;;;;6313494;22;20023;-80
2022/10/27 02:38:33;;;;;;;21.80;10.68;;;12.70;99.90;;;;;;6313504;22;20011;-80
2022/10/27 02:40:59;;;;;;;17.65;11.38;;;12.70;99.90;;;;;;6341193;22;20015;-81
2022/10/27 02:43:25;;;;;;;19.85;10.93;;;12.60;99.90;;;;;;6313482;22;20098;-80
2022/10/27 02:45:50;;;;;;;21.80;12.35;;;12.70;99.90;;;;;;6313372;22;20025;-80
2022/10/27 02:48:16;;;;;;;23.50;12.48;;;12.70;99.90;;;;;;6340949;22;20019;-80
2022/10/27 02:50:41;;;;;;;26.15;12.65;;;12.70;99.90;;;;;;6341263;22;20011;-80
2022/10/27 02:53:07;;;;;;;28.63;12.85;;;12.70;99.90;;;;;;6340972;22;20473;-80
2022/10/27 02:55:33;;;;;;;22.83;11.98;;;12.70;99.90;;;;;;6313335;22;20045;-80
2022/10/27 02:57:58;;;;;;;23.20;12.80;;;12.70;99.90;;;;;;6313319;22;20090;-80
2022/10/27 03:00:24;;;;;;;21.83;12.68;;;12.60;99.90;;;;;;6313167;22;20023;-81
2022/10/27 03:02:49;;;;;;;23.48;12.25;;;12.60;99.90;;;;;;6340773;22;20497;-80
2022/10/27 03:05:15;;;;;;;27.67;13.63;;;12.60;99.90;;;;;;6341022;22;20018;-80
2022/10/27 03:07:43;;;;;;;28.08;13.82;;;12.60;99.90;;;;;;6340669;22;20014;-80
2022/10/27 03:10:09;;;;;;;21.42;12.90;;;12.50;99.90;;;;;;6340603;22;20076;-80
2022/10/27 03:12:35;;;;;;;25.73;13.57;;;12.50;99.90;;;;;;6340907;22;20093;-81
2022/10/27 03:15:01;;;;;;;23.65;13.18;;;12.50;99.90;;;;;;6340825;22;20025;-81
2022/10/27 03:17:26;;;;;;;24.98;13.32;;;12.50;99.90;;;;;;6340581;22;20019;-81
2022/10/27 03:19:52;;;;;;;23.77;13.80;;;12.50;99.90;;;;;;6340274;22;20011;-80
2022/10/27 03:22:18;;;;;;;24.70;14.50;;;12.40;99.90;;;;;;6312968;22;20023;-80
2022/10/27 03:24:43;;;;;;;21.75;13.88;;;12.40;99.90;;;;;;6312957;22;20014;-80
2022/10/27 03:27:09;;;;;;;21.48;13.90;;;12.50;99.90;;;;;;6312989;22;20018;-80
2022/10/27 03:29:34;;;;;;;23.73;14.50;;;12.40;99.90;;;;;;6340762;22;20006;-81
2022/10/27 03:32:00;;;;;;;30.58;15.45;;;12.40;99.90;;;;;;6340830;22;20104;-80
2022/10/27 03:34:26;;;;;;;24.05;14.43;;;12.40;99.90;;;;;;6340199;22;20019;-80
2022/10/27 03:36:51;;;;;;;26.27;14.60;;;12.50;99.90;;;;;;6312797;22;20347;-81
2022/10/27 03:39:17;;;;;;;22.67;15.95;;;12.40;99.90;;;;;;6312930;22;20569;-80
2022/10/27 03:41:42;;;;;;;27.60;14.27;;;12.40;99.90;;;;;;6340631;22;20019;-81
2022/10/27 03:44:08;;;;;;;28.15;14.85;;;12.50;99.90;;;;;;6312707;22;20338;-81
2022/10/27 03:46:34;;;;;;;24.00;14.90;;;12.60;99.90;;;;;;6340700;22;20042;-80
2022/10/27 03:48:59;;;;;;;27.50;15.45;;;12.50;99.90;;;;;;6340662;22;20330;-81
2022/10/27 03:51:25;;;;;;;34.35;15.82;;;12.60;99.90;;;;;;6340613;22;20018;-81
2022/10/27 03:53:50;;;;;;;26.63;16.13;;;12.60;99.90;;;;;;6340739;22;20010;-81
2022/10/27 03:56:16;;;;;;;23.42;15.20;;;12.60;99.90;;;;;;6340329;22;20047;-80
2022/10/27 03:58:42;;;;;;;27.40;15.15;;;12.50;99.90;;;;;;6340207;22;20023;-81
2022/10/27 04:01:09;;;;;;;33.08;16.77;;;12.60;99.90;;;;;;6340439;22;20015;-81
2022/10/27 04:03:35;;;;;;;28.15;16.52;;;12.70;99.90;;;;;;6340491;22;20010;-81
2022/10/27 04:06:01;;;;;;;25.60;15.95;;;12.70;99.90;;;;;;6312653;22;20018;-81
2022/10/27 04:08:26;;;;;;;32.92;17.20;;;12.70;99.90;;;;;;6312570;22;20072;-80
2022/10/27 04:10:52;;;;;;;27.88;15.98;;;12.70;99.90;;;;;;6311726;22;20086;-81
2022/10/27 04:13:17;;;;;;;31.17;16.67;;;12.70;99.90;;;;;;6340045;22;20011;-80
2022/10/27 04:15:43;;;;;;;33.17;15.30;;;12.70;99.90;;;;;;6312488;22;20015;-81
2022/10/27 04:18:10;;;;;;;29.20;15.27;;;12.70;99.90;;;;;;6312504;22;20015;-81
2022/10/27 04:20:35;;;;;;;25.42;16.50;;;12.70;99.90;;;;;;6339765;22;20019;-81
2022/10/27 04:23:01;;;;;;;28.40;15.02;;;12.70;99.90;;;;;;6312394;22;20034;-81
2022/10/27 04:25:27;;;;;;;26.17;15.55;;;12.70;99.90;;;;;;6340296;22;20013;-81
2022/10/27 04:28:04;;;;;;;25.92;15.55;;;12.70;99.90;;;;;;6340200;22;20061;-80
2022/10/27 04:30:29;;;;;;;28.95;15.75;;;12.70;99.90;;;;;;6312286;22;20019;-80
2022/10/27 04:32:55;;;;;;;30.52;16.20;;;12.70;99.90;;;;;;6340277;22;20007;-80
2022/10/27 04:35:20;;;;;;;26.83;14.55;;;12.70;99.90;;;;;;6340274;22;20398;-80
2022/10/27 04:37:46;;;;;;;25.90;15.30;;;12.70;99.90;;;;;;6312277;22;20432;-81
2022/10/27 04:40:12;;;;;;;32.15;15.90;;;12.70;99.90;;;;;;6339784;22;20110;-81
2022/10/27 04:42:43;;;;;;;27.60;14.57;;;12.70;99.90;;;;;;6340210;22;20041;-80
2022/10/27 04:45:09;;;;;;;29.17;17.88;;;12.70;99.90;;;;;;6339691;22;20022;-81
2022/10/27 04:47:34;;;;;;;27.90;15.63;;;12.70;99.90;;;;;;6339746;22;20011;-81
2022/10/27 04:50:00;;;;;;;26.15;18.05;;;12.70;99.90;;;;;;6340180;22;20011;-80
2022/10/27 04:52:26;;;;;;;27.08;15.68;;;12.70;99.90;;;;;;6340161;22;20053;-81
2022/10/27 04:54:51;;;;;;;29.60;16.35;;;12.70;99.90;;;;;;6312114;22;20491;-80
2022/10/27 04:57:17;;;;;;;24.85;15.45;;;12.70;99.90;;;;;;6339845;22;20460;-80
2022/10/27 04:59:43;;;;;;;27.58;14.63;;;12.70;99.90;;;;;;6312108;22;20013;-80
2022/10/27 05:02:08;;;;;;;27.35;15.15;;;12.70;99.90;;;;;;6339964;22;20011;-81
2022/10/27 05:04:34;;;;;;;24.63;15.18;;;12.80;99.90;;;;;;6340013;22;20334;-81
2022/10/27 05:06:59;;;;;;;29.77;15.23;;;12.70;99.90;;;;;;6340015;22;20014;-81
2022/10/27 05:09:25;;;;;;;29.35;14.30;;;12.80;99.90;;;;;;6340004;22;20021;-81
2022/10/27 05:11:51;;;;;;;24.55;14.65;;;12.70;99.90;;;;;;6311991;22;20119;-81
2022/10/27 05:14:16;;;;;;;25.00;14.68;;;12.70;99.90;;;;;;6312101;22;20447;-80
2022/10/27 05:16:42;;;;;;;25.02;14.80;;;12.70;99.90;;;;;;6339625;22;20015;-81
2022/10/27 05:19:07;;;;;;;26.45;15.18;;;12.60;99.90;;;;;;6311954;22;20053;-81
2022/10/27 05:21:33;;;;;;;26.65;14.75;;;12.70;99.90;;;;;;6311713;22;20029;-80
2022/10/27 05:23:59;;;;;;;23.85;14.18;;;12.60;99.90;;;;;;6311774;22;20089;-80
2022/10/27 05:26:24;;;;;;;22.60;14.55;;;12.70;99.90;;;;;;6339595;22;20015;-80
2022/10/27 05:28:50;;;;;;;20.90;14.02;;;12.70;99.90;;;;;;6312245;22;20097;-81
2022/10/27 05:31:16;;;;;;;24.33;14.15;;;12.70;99.90;;;;;;6311877;22;20019;-81
2022/10/27 05:33:41;;;;;;;28.88;14.85;;;12.70;99.90;;;;;;6339473;22;20018;-80
2022/10/27 05:36:07;;;;;;;25.80;14.57;;;12.60;99.90;;;;;;6311808;22;20039;-80
2022/10/27 05:38:33;;;;;;;26.15;13.65;;;12.60;99.90;;;;;;6311644;22;20054;-80
2022/10/27 05:40:58;;;;;;;27.40;15.10;;;12.60;99.90;;;;;;6339839;22;20026;-79
2022/10/27 05:43:24;;;;;;;30.45;13.75;;;12.60;99.90;;;;;;6312175;22;20014;-80
2022/10/27 05:45:50;;;;;;;27.58;14.70;;;12.70;99.90;;;;;;6339644;22;20064;-80
2022/10/27 05:48:16;;;;;;;27.17;14.88;;;12.70;99.90;;;;;;6339643;22;20034;-80
2022/10/27 05:50:42;;;;;;;26.00;14.25;;;12.70;99.90;;;;;;6339610;22;20430;-80
2022/10/27 05:53:08;;;;;;;29.45;15.65;;;12.70;99.90;;;;;;6311958;22;20362;-80
2022/10/27 05:55:33;;;;;;;27.95;13.85;;;12.70;99.90;;;;;;6339212;22;20446;-80
2022/10/27 05:58:02;;;;;;;27.75;15.15;;;12.70;99.90;;;;;;6311559;22;20011;-80
2022/10/27 06:00:32;;;;;;;26.02;14.98;;;12.70;99.90;;;;;;6311474;22;20402;-80
2022/10/27 06:03:00;;;;;;;24.95;13.88;;;12.70;99.90;;;;;;6311562;22;20446;-80
2022/10/27 06:05:28;;;;;;;26.27;14.30;;;12.70;99.90;;;;;;6339304;22;20022;-80
2022/10/27 06:07:54;;;;;;;25.55;13.70;;;12.80;99.90;;;;;;6339522;22;20006;-80
2022/10/27 06:10:20;;;;;;;27.58;14.77;;;12.70;99.90;;;;;;6339554;22;20011;-80
2022/10/27 06:12:45;;;;;;;25.55;13.93;;;12.80;99.90;;;;;;6339257;22;20049;-80
2022/10/27 06:15:11;;;;;;;27.52;14.90;;;12.80;99.90;;;;;;6339580;22;20018;-80
2022/10/27 06:17:37;;;;;;;27.35;14.25;;;12.80;99.90;;;;;;6339607;22;20007;-80
2022/10/27 06:20:03;;;;;;;26.20;13.52;;;12.70;99.90;;;;;;6339002;22;20054;-80
2022/10/27 06:22:29;;;;;;;28.67;14.75;;;12.80;99.90;;;;;;6311043;22;20092;-80
2022/10/27 06:24:54;;;;;;;28.05;14.50;;;12.70;99.90;;;;;;6310855;22;20392;-80
2022/10/27 06:27:20;;;;;;;23.73;13.57;;;12.70;99.90;;;;;;6338404;22;20011;-80
2022/10/27 06:29:46;;;;;;;26.17;13.90;;;12.70;99.90;;;;;;6311348;22;20435;-80
2022/10/27 06:32:11;;;;;;;24.02;13.40;;;12.80;99.90;;;;;;6311399;22;20377;-80
2022/10/27 06:34:37;;;;;;;30.70;15.68;;;12.70;99.90;;;;;;6339282;22;20019;-80
2022/10/27 06:37:04;;;;;;;24.60;13.68;;;12.80;99.90;;;;;;6338951;22;20046;-80
2022/10/27 06:39:30;;;;;;;27.70;14.27;;;12.80;99.90;;;;;;6339289;22;20011;-81
2022/10/27 06:41:56;;;;;;;26.35;13.95;;;12.80;99.90;;;;;;6311315;22;20011;-81
2022/10/27 06:44:22;;;;;;;26.75;14.13;;;12.70;99.90;;;;;;6311310;22;20045;-81
2022/10/27 06:46:48;;;;;;;27.33;14.23;;;12.70;99.90;;;;;;6339328;22;20191;-81
2022/10/27 06:49:14;;;;;;;23.23;13.77;;;12.70;99.90;;;;;;6339248;22;20015;-80
2022/10/27 06:51:39;;;;;;;26.17;13.63;;;12.70;99.90;;;;;;6338839;22;20014;-81
2022/10/27 06:54:05;;;;;;;28.13;14.20;;;12.80;99.90;;;;;;6311229;22;20019;-81
2022/10/27 06:56:30;;;;;;;27.90;14.43;;;12.80;99.90;;;;;;6311225;22;20023;-81
2022/10/27 06:58:56;;;;;;;26.80;15.30;;;12.80;99.90;;;;;;6338840;22;20438;-81
2022/10/27 07:01:22;;;;;;;24.08;13.52;;;12.80;99.90;;;;;;6311141;22;20022;-81
2022/10/27 07:03:49;;;;;;;25.33;13.98;;;12.80;99.90;;;;;;6339164;22;20015;-81
2022/10/27 07:06:15;;;;;;;24.13;13.55;;;12.80;99.90;;;;;;6338928;22;20010;-80
2022/10/27 07:08:40;;;;;;;30.70;14.68;;;12.90;99.90;;;;;;6339807;22;20034;-81
2022/10/27 07:11:06;;;;;;;24.58;13.95;;;12.90;99.90;;;;;;6312884;22;20022;-80
2022/10/27 07:13:32;;;;;;;26.00;14.43;;;12.90;99.90;;;;;;6340830;22;20069;-81
2022/10/27 07:15:57;;;;;;;22.52;13.45;;;12.90;99.90;;;;;;6313595;22;20343;-81
2022/10/27 07:18:23;;;;;;;23.73;14.23;;;12.90;99.90;;;;;;6312839;22;20019;-80
2022/10/27 07:20:50;;;;;;;27.48;14.18;;;12.90;99.90;;;;;;6340039;22;20019;-79
2022/10/27 07:23:15;;;;;;;30.55;15.90;;;12.90;99.90;;;;;;6340536;22;20019;-79
2022/10/27 07:25:41;;;;;;;23.05;13.80;;;13.00;99.90;;;;;;6312901;22;20088;-79
2022/10/27 07:28:07;;;;;;;24.40;13.77;;;13.00;99.90;;;;;;6312914;22;20018;-79
2022/10/27 07:30:36;;;;;;;23.05;14.15;;;12.90;99.90;;;;;;6340350;22;20019;-79
2022/10/27 07:33:02;;;;;;;24.67;13.52;;;13.00;99.90;;;;;;6340622;22;20021;-80
2022/10/27 07:35:28;;;;;;;24.15;14.68;;;13.10;99.90;;;;;;6340195;22;20450;-79
2022/10/27 07:37:54;;;;;;;28.33;14.50;;;13.10;99.90;;;;;;6339275;22;20069;-78
2022/10/27 07:40:21;;;;;;;27.08;14.52;;;13.10;99.90;;;;;;6312398;22;20010;-79
2022/10/27 07:42:49;;;;;;;26.00;14.30;;;13.10;99.90;;;;;;6312389;22;20050;-79
2022/10/27 07:45:16;;;;;;;24.15;13.88;;;13.20;99.90;;;;;;6340016;22;20459;-79
2022/10/27 07:47:46;;;;;;;25.52;14.50;;;13.20;99.90;;;;;;6312376;22;20018;-79
2022/10/27 07:50:12;;;;;;;26.40;15.43;;;13.20;99.90;;;;;;6312457;22;20026;-79
2022/10/27 07:52:43;;;;;;;20.08;13.75;;;13.30;99.90;;;;;;6340141;22;20098;-78
2022/10/27 07:55:10;;;;;;;29.50;14.65;;;13.30;99.90;;;;;;6340220;22;20461;-79
2022/10/27 07:57:36;;;;;;;29.20;16.10;;;13.40;99.90;;;;;;6340145;22;20119;-79
2022/10/27 08:00:04;;;;;;;23.48;15.40;;;13.30;99.90;;;;;;6312296;22;20017;-79
2022/10/27 08:02:30;;;;;;;26.30;14.43;;;13.40;99.90;;;;;;6339629;22;20435;-78
2022/10/27 08:04:56;;;;;;;24.42;15.52;;;13.40;99.90;;;;;;6312263;22;20021;-79
2022/10/27 08:07:22;;;;;;;25.23;14.68;;;13.50;99.90;;;;;;6312114;22;20018;-79
2022/10/27 08:09:49;;;;;;;27.30;14.27;;;13.50;99.90;;;;;;6312224;22;20015;-78
2022/10/27 08:12:14;;;;;;;27.45;15.30;;;13.60;99.90;;;;;;6312202;22;20019;-80
2022/10/27 08:14:40;;;;;;;27.60;14.60;;;13.60;99.90;;;;;;6339922;22;20388;-79
2022/10/27 08:17:06;;;;;;;26.27;14.98;;;13.50;99.90;;;;;;6339653;22;20022;-79
2022/10/27 08:19:31;;;;;;;23.05;13.82;;;13.60;99.90;;;;;;6311979;22;20015;-79
2022/10/27 08:21:57;;;;;;;26.77;16.65;;;13.60;99.90;;;;;;6339402;22;20025;-79
2022/10/27 08:24:22;;;;;;;25.10;15.02;;;13.70;99.90;;;;;;6312039;22;20320;-79
2022/10/27 08:26:48;;;;;;;25.75;14.18;;;13.70;99.90;;;;;;6339929;22;20080;-78
2022/10/27 08:29:14;;;;;;;28.20;15.50;;;13.70;99.90;;;;;;6339596;22;20324;-79
2022/10/27 08:31:39;;;;;;;25.77;15.25;;;13.70;99.90;;;;;;6311813;22;20338;-79
2022/10/27 08:34:05;;;;;;;23.33;14.55;;;13.80;99.90;;;;;;6311962;22;20029;-79
2022/10/27 08:36:37;;;;;;;20.67;12.35;;;13.80;99.90;;;;;;6312065;22;20057;-79
2022/10/27 08:39:13;;;;;;;21.45;12.50;;;14.00;99.90;;;;;;6339562;22;20354;-79
2022/10/27 08:42:13;;;;;;;20.83;12.82;;;14.00;99.90;;;;;;6311963;22;20023;-79
2022/10/27 08:44:56;;;;;;;21.90;12.52;;;14.20;99.90;;;;;;6339322;22;20023;-79
2022/10/27 08:47:23;;;;;;;15.97;10.67;;;14.30;99.90;;;;;;6311933;22;20085;-78
2022/10/27 08:50:08;;;;;;;16.85;10.00;;;14.40;99.90;;;;;;6339453;22;20417;-79
2022/10/27 08:52:39;;;;;;;15.55;10.13;;;14.40;99.90;;;;;;6339327;22;20014;-79
2022/10/27 08:55:13;;;;;;;17.25;9.88;;;14.50;99.90;;;;;;6339715;22;20102;-79
2022/10/27 08:58:02;;;;;;;18.15;9.52;;;14.50;99.90;;;;;;6339771;22;20049;-79
2022/10/27 09:00:33;;;;;;;15.07;9.02;;;14.60;99.90;;;;;;6338188;22;20098;-79
2022/10/27 09:03:18;;;;;;;16.80;9.02;;;14.70;99.90;;;;;;6339656;22;20041;-78
2022/10/27 09:06:11;;;;;;;13.07;8.82;;;14.80;99.90;;;;;;6311596;22;20022;-79
2022/10/27 09:09:06;;;;;;;17.90;9.45;;;14.80;99.90;;;;;;6311804;22;20061;-78
2022/10/27 09:12:00;;;;;;;14.82;9.82;;;14.90;99.90;;;;;;6312636;22;20505;-78
2022/10/27 09:14:31;;;;;;;14.65;8.88;;;14.90;99.90;;;;;;6339514;22;20021;-79
2022/10/27 09:17:08;;;;;;;15.00;9.15;;;15.10;99.90;;;;;;6311604;22;20025;-78
2022/10/27 09:19:47;;;;;;;15.15;8.77;;;15.20;99.90;;;;;;6339115;22;20316;-79
2022/10/27 09:22:16;;;;;;;18.98;8.50;;;15.20;99.90;;;;;;6311529;22;20069;-79
2022/10/27 09:24:45;;;;;;;13.07;8.27;;;15.40;99.90;;;;;;6311481;22;20347;-78
2022/10/27 09:27:13;;;;;;;15.05;7.95;;;15.50;99.90;;;;;;6339509;22;20011;-78
2022/10/27 09:29:41;;;;;;;17.35;8.50;;;15.60;99.90;;;;;;6311473;22;20328;-78
2022/10/27 09:32:17;;;;;;;12.80;7.65;;;15.50;99.90;;;;;;6338459;22;20007;-79
2022/10/27 09:34:53;;;;;;;17.83;7.82;;;15.60;99.90;;;;;;6339003;22;20017;-79
2022/10/27 09:37:19;;;;;;;17.65;7.57;;;15.80;99.90;;;;;;6311415;22;20086;-79
2022/10/27 09:39:47;;;;;;;13.55;7.68;;;15.80;99.90;;;;;;6311343;22;20384;-78
2022/10/27 09:42:14;;;;;;;15.13;7.63;;;15.80;99.90;;;;;;6339247;22;20015;-79
2022/10/27 09:44:45;;;;;;;12.10;7.07;;;15.80;99.90;;;;;;6339264;22;20010;-79
2022/10/27 09:47:11;;;;;;;13.45;7.25;;;15.90;99.90;;;;;;6311377;22;20026;-78
2022/10/27 09:49:39;;;;;;;15.27;7.97;;;15.90;99.90;;;;;;6339017;22;20014;-78
2022/10/27 09:52:22;;;;;;;12.38;7.47;;;16.00;99.90;;;;;;6311559;22;20101;-79
2022/10/27 09:54:53;;;;;;;14.27;7.78;;;16.10;99.90;;;;;;6339583;22;20011;-80
2022/10/27 09:57:22;;;;;;;15.65;9.13;;;16.10;99.90;;;;;;6338702;22;20450;-79
2022/10/27 10:00:20;;;;;;;13.77;8.32;;;16.10;99.90;;;;;;6339577;22;20050;-80
2022/10/27 10:03:02;;;;;;;16.17;8.95;;;16.10;99.90;;;;;;6311207;22;20409;-79
2022/10/27 10:05:33;;;;;;;14.07;7.95;;;16.10;99.90;;;;;;6311307;22;20019;-80
2022/10/27 10:08:24;;;;;;;17.17;8.90;;;16.20;99.90;;;;;;6311056;22;20343;-79
2022/10/27 10:11:01;;;;;;;15.55;7.80;;;16.20;99.90;;;;;;6311151;22;20076;-79
2022/10/27 10:13:32;;;;;;;18.30;8.82;;;16.20;99.90;;;;;;6311136;22;20015;-80
2022/10/27 10:16:08;;;;;;;12.38;6.57;;;16.20;99.90;;;;;;6311063;22;20019;-80
2022/10/27 10:18:35;;;;;;;12.93;6.93;;;16.30;99.90;;;;;;6311130;22;20014;-80
2022/10/27 10:21:03;;;;;;;13.02;7.15;;;16.30;99.90;;;;;;6338514;22;20057;-80
2022/10/27 10:23:33;;;;;;;11.35;6.60;;;16.20;99.90;;;;;;6338764;22;20342;-80
2022/10/27 10:26:01;;;;;;;12.32;6.88;;;16.30;99.90;;;;;;6311122;22;20442;-81
2022/10/27 10:28:40;;;;;;;16.73;7.20;;;16.40;99.90;;;;;;6311112;22;20034;-83
2022/10/27 10:31:13;;;;;;;13.75;6.70;;;16.30;99.90;;;;;;6311380;22;20464;-83
2022/10/27 10:33:45;;;;;;;10.45;6.95;;;16.50;99.90;;;;;;6338811;22;20450;-82
2022/10/27 10:36:19;;;;;;;10.03;6.03;;;16.40;99.90;;;;;;6311192;22;20029;-82
2022/10/27 10:38:55;;;;;;;12.07;5.88;;;16.50;99.90;;;;;;6311078;22;20116;-82
2022/10/27 10:41:28;;;;;;;15.88;6.10;;;16.40;99.90;;;;;;6339129;22;20014;-81
2022/10/27 10:44:06;;;;;;;;;;;16.50;99.90;;;;;;6312412;22;20015;-80
2022/10/27 10:46:34;;;;;;;11.25;5.05;;;16.50;99.90;;;;;;6341026;22;19922;-81
2022/10/27 10:49:00;;;;;;;13.02;5.03;;;16.50;99.90;;;;;;6313076;22;20026;-80
2022/10/27 10:51:29;;;;;;;13.70;5.22;;;16.60;99.90;;;;;;6340859;22;20348;-81
2022/10/27 10:54:04;;;;;;;11.43;5.55;;;16.70;99.90;;;;;;6313099;22;20082;-79
2022/10/27 11:55:15;;;;;;;9.55;2.95;;;18.30;99.90;;;;;;6328427;22;20038;-77
2022/10/27 11:57:58;;;;;;;8.30;2.95;;;18.50;99.90;;;;;;6338760;22;20389;-77
2022/10/27 12:00:28;;;;;;;10.20;3.17;;;18.60;99.90;;;;;;6338283;22;20505;-77
2022/10/27 12:03:15;;;;;;;9.07;3.42;;;18.70;99.90;;;;;;6339926;22;20342;-77
2022/10/27 12:05:46;;;;;;;6.40;2.80;;;18.70;99.90;;;;;;6340318;22;20014;-76
2022/10/27 12:08:30;;;;;;;8.25;3.00;;;18.70;99.90;;;;;;6339946;22;20019;-79
2022/10/27 12:11:23;;;;;;;6.18;2.65;;;18.80;99.90;;;;;;6338624;22;20075;-76
2022/10/27 12:14:06;;;;;;;;;;;18.70;99.90;;;;;;6328568;22;20011;-77
2022/10/27 12:16:53;;;;;;;6.50;3.40;;;18.70;99.90;;;;;;6338304;22;19914;-77
2022/10/27 12:19:26;;;;;;;11.38;4.20;;;18.70;99.90;;;;;;6339800;22;20023;-77
2022/10/27 12:21:57;;;;;;;9.82;2.85;;;18.70;99.90;;;;;;6339668;22;20071;-78
2022/10/27 12:24:26;;;;;;;5.68;2.65;;;18.80;99.90;;;;;;6340107;22;20014;-77
2022/10/27 12:27:01;;;;;;;7.10;2.67;;;18.80;99.90;;;;;;6338233;22;20022;-79
2022/10/27 12:29:34;;;;;;;11.35;3.08;;;18.90;99.90;;;;;;6339813;22;20026;-78
2022/10/27 12:32:06;;;;;;;8.60;3.58;;;18.90;99.90;;;;;;6340103;22;20011;-78
2022/10/27 12:34:44;;;;;;;5.75;3.25;;;18.80;99.90;;;;;;6340257;22;20018;-79
2022/10/27 12:37:32;;;;;;;9.80;3.25;;;18.80;99.90;;;;;;6339971;22;20018;-78
2022/10/27 12:40:06;;;;;;;6.93;2.58;;;18.70;99.90;;;;;;6339502;22;20019;-78
2022/10/27 14:34:51;;;;;;;7.30;2.33;;;17.30;99.90;;;;;;6357079;22;20022;-82
2022/10/27 14:37:32;;;;;;;4.45;2.03;;;17.30;99.90;;;;;;6344137;22;20345;-81
2022/10/27 15:33:39;;;;;;;;;;;;;;;;;;;;;
2022/10/27 15:53:14;;;;;;;15.20;6.63;;;17.30;99.90;;;;;;6363209;22;20038;-82
2022/10/27 15:55:42;;;;;;;10.70;4.55;;;17.20;99.90;;;;;;6344253;22;20017;-80
2022/10/27 15:58:29;;;;;;;17.83;8.80;;;17.20;99.90;;;;;;6371789;22;20017;-81
2022/10/27 16:01:23;;;;;;;12.85;6.93;;;17.10;99.90;;;;;;6343774;22;20022;-80
2022/10/27 16:04:03;;;;;;;7.95;3.22;;;17.10;99.90;;;;;;6343804;22;20337;-80
2022/10/27 16:06:31;;;;;;;6.90;2.40;;;17.00;99.90;;;;;;6371689;22;20437;-81
2022/10/27 16:08:59;;;;;;;7.25;2.95;;;17.00;99.90;;;;;;6372058;22;20010;-80
2022/10/27 16:11:31;;;;;;;8.27;3.50;;;16.90;99.90;;;;;;6371852;22;20487;-81
2022/10/27 16:14:03;;;;;;;7.82;3.58;;;17.00;99.90;;;;;;6371646;22;20035;-81
2022/10/27 16:16:31;;;;;;;9.52;4.47;;;16.80;99.90;;;;;;6344130;22;20006;-82
2022/10/27 16:18:57;;;;;;;7.78;4.10;;;16.80;99.90;;;;;;6343853;22;20025;-81
2022/10/27 16:21:24;;;;;;;10.57;2.33;;;16.80;99.90;;;;;;6343370;22;20044;-81
2022/10/27 16:23:50;;;;;;;6.88;2.90;;;16.80;99.90;;;;;;6371451;22;20426;-80
2022/10/27 16:26:22;;;;;;;8.18;3.13;;;16.70;99.90;;;;;;6371655;22;20018;-80
2022/10/27 16:28:48;;;;;;;8.55;4.05;;;16.70;99.90;;;;;;6343656;22;20442;-80
2022/10/27 16:31:16;;;;;;;5.70;2.50;;;16.70;99.90;;;;;;6343603;22;20089;-80
2022/10/27 16:33:43;;;;;;;7.22;3.20;;;16.70;99.90;;;;;;6343636;22;20018;-82
2022/10/27 16:36:13;;;;;;;8.93;3.95;;;16.60;99.90;;;;;;6371579;22;20018;-80
2022/10/27 16:38:40;;;;;;;10.93;3.63;;;16.60;99.90;;;;;;6371643;22;20025;-80
2022/10/27 16:41:26;;;;;;;9.50;4.68;;;16.60;99.90;;;;;;6343594;22;20018;-80
2022/10/27 16:43:52;;;;;;;8.18;3.17;;;16.50;99.90;;;;;;6342571;22;20024;-80
2022/10/27 16:46:18;;;;;;;11.07;4.50;;;16.50;99.90;;;;;;6371692;22;20093;-81
2022/10/27 16:48:43;;;;;;;9.40;3.67;;;16.50;99.90;;;;;;6371795;22;20010;-80
2022/10/27 16:51:16;;;;;;;11.45;4.00;;;16.40;99.90;;;;;;6371033;22;20382;-80